Kemnay, Canada
Current Conditions -  °F | °C
As of 2:00 PM on Sunday 23 Nov 2014 (Local Time) from CYBR Reporting Station
Light Snow Light Snow  
Wind Chill: -3°   Ceiling: 2600
Heat Index: 14°   Visibility: 10mi
Dew Point:   Wind: 17mph
Humidity: 79%   Direction: 330°NNW
Pressure: 29.59"   Gusts: NA
Location:  49.5°N, 100.13°W
Report Text: CYBR 232000Z 33015KT 10SM -SN FEW020 OVC026 M10/M13 A2959 RMK SC1SC7 SLP048
Loading
Personal Weather Stations






























Interactive Weather Map New forecast layout! Learn more

10-Day Weather Forecast

Advertisements
Track Severe Weather on mobile